Post, Texas
Current Conditions -  °F | °C
As of 6:53 PM on Monday 24 Nov 2014 (Local Time) from KLBB Reporting Station
Overcast Overcast  
Wind Chill: 39°   Ceiling: 14000
Heat Index: 43°   Visibility: 10mi
Dew Point: 15°   Wind: 7mph
Humidity: 32%   Direction: 50°NE
Pressure: 30.06"   Gusts: NA
Location:  33.19°N, 101.38°W
Report Text: KLBB 250053Z 05006KT 10SM BKN140 BKN250 OVC300 06/M09 A3006 RMK AO2 SLP184 T00611094
Loading
Personal Weather Stations






























Interactive Weather Map New forecast layout! Learn more

10-Day Weather Forecast

Advertisements
Track Severe Weather on mobile